createdAt,value
2019-01-31T04:44:38.890Z,96244.56
2019-01-31T04:47:09.245Z,96245.94
2019-01-31T04:49:39.693Z,96246.20
2019-01-31T04:52:09.954Z,96238.01
2019-01-31T04:54:40.184Z,96241.66
2019-01-31T04:57:10.412Z,96236.39
2019-01-31T04:59:42.738Z,96243.22
2019-01-31T05:02:13.352Z,96245.30
2019-01-31T05:04:46.472Z,96234.52
2019-01-31T05:07:16.891Z,96240.28
2019-01-31T05:09:47.186Z,96242.95
2019-01-31T05:12:17.483Z,96236.60
2019-01-31T05:14:47.746Z,96237.14
2019-01-31T05:17:17.899Z,96240.84
2019-01-31T05:19:48.124Z,96241.09
2019-01-31T05:22:18.310Z,96233.38
2019-01-31T05:24:49.325Z,96231.03
2019-01-31T05:27:19.532Z,96230.88
2019-01-31T05:29:49.873Z,96223.80
2019-01-31T05:32:20.218Z,96229.21
2019-01-31T05:34:52.097Z,96231.90
2019-01-31T05:37:22.319Z,96234.02
2019-01-31T05:39:52.479Z,96231.90
2019-01-31T05:42:22.769Z,96234.27
2019-01-31T05:44:53.576Z,96231.03
2019-01-31T05:47:23.980Z,96234.13
2019-01-31T05:49:54.385Z,96233.31
2019-01-31T05:52:24.542Z,96235.09
2019-01-31T05:54:54.436Z,96232.47
2019-01-31T05:57:24.669Z,96241.00
2019-01-31T05:59:54.954Z,96236.09
2019-01-31T06:02:25.062Z,96236.23
2019-01-31T06:04:55.282Z,96236.06
2019-01-31T06:07:25.668Z,96241.52
2019-01-31T06:09:55.806Z,96250.05
2019-01-31T06:12:25.919Z,96254.17
2019-01-31T06:14:56.107Z,96260.08
2019-01-31T06:17:26.349Z,96261.73
2019-01-31T06:19:56.626Z,96259.53
2019-01-31T06:22:26.887Z,96253.83
2019-01-31T06:24:57.112Z,96255.59
2019-01-31T06:27:27.382Z,96253.88
2019-01-31T06:29:57.552Z,96256.91
2019-01-31T06:32:28.257Z,96255.37
2019-01-31T06:34:58.698Z,96261.06
2019-01-31T06:37:28.911Z,96258.66
2019-01-31T06:39:59.423Z,96261.84
2019-01-31T06:42:30.060Z,96259.98
2019-01-31T06:45:00.620Z,96263.99
2019-01-31T06:47:30.997Z,96266.95
2019-01-31T06:50:01.418Z,96273.67
2019-01-31T06:52:32.055Z,96272.16
2019-01-31T06:55:03.697Z,96279.13
2019-01-31T06:57:36.262Z,96269.94
2019-01-31T07:00:09.802Z,96275.55
2019-01-31T07:02:40.352Z,96273.23
2019-01-31T07:05:13.043Z,96270.42
2019-01-31T07:07:43.303Z,96272.05
2019-01-31T07:10:33.618Z,96277.09
2019-01-31T07:13:03.846Z,96281.34
2019-01-31T07:15:33.946Z,96292.47
2019-01-31T07:18:04.426Z,96290.45
2019-01-31T07:20:34.684Z,96299.76
2019-01-31T07:23:05.618Z,96302.96
2019-01-31T07:25:35.863Z,96305.39
2019-01-31T07:28:18.348Z,96302.52
2019-01-31T07:30:48.977Z,96300.96
2019-01-31T07:33:19.297Z,96307.38
2019-01-31T07:35:52.202Z,96300.00
2019-01-31T07:38:22.644Z,96298.77
2019-01-31T07:40:55.069Z,96304.39
2019-01-31T07:43:25.530Z,96304.68
2019-01-31T07:45:56.053Z,96301.81
2019-01-31T07:48:29.608Z,96314.52
2019-01-31T07:51:00.068Z,96316.40
2019-01-31T07:53:31.635Z,96308.02
2019-01-31T07:56:02.172Z,96308.02
2019-01-31T07:58:32.712Z,96323.94
2019-01-31T08:01:03.320Z,96321.84
2019-01-31T08:03:36.800Z,96324.02
2019-01-31T08:06:07.193Z,96329.09
2019-01-31T08:08:37.570Z,96329.38
2019-01-31T08:11:08.077Z,96322.27
2019-01-31T08:13:38.648Z,96333.15
2019-01-31T08:16:09.024Z,96325.75
2019-01-31T08:18:39.226Z,96326.34
2019-01-31T08:21:09.577Z,96329.80
2019-01-31T08:23:40.675Z,96329.80
2019-01-31T08:26:11.371Z,96330.33
2019-01-31T08:28:41.737Z,96329.52
2019-01-31T08:31:12.261Z,96331.91
2019-01-31T08:33:42.591Z,96327.66
2019-01-31T08:36:12.979Z,96326.06
2019-01-31T08:38:43.684Z,96332.70
2019-01-31T08:41:13.830Z,96335.34
2019-01-31T08:43:46.582Z,96336.92
2019-01-31T08:46:16.123Z,96333.47
2019-01-31T08:48:50.046Z,96337.97
2019-01-31T08:51:20.589Z,96337.69
2019-01-31T08:53:51.265Z,96337.41
2019-01-31T08:56:22.073Z,96338.46
2019-01-31T08:58:52.775Z,96337.66
2019-01-31T09:01:23.411Z,96336.28
2019-01-31T09:03:54.487Z,96331.73
2019-01-31T09:06:24.829Z,96335.17
2019-01-31T09:08:55.188Z,96326.91
2019-01-31T09:11:27.087Z,96334.88
2019-01-31T09:13:57.850Z,96330.09
2019-01-31T09:16:28.518Z,96334.09
2019-01-31T09:19:00.742Z,96332.52
2019-01-31T09:21:42.305Z,96334.37
2019-01-31T09:24:47.807Z,96334.59
2019-01-31T09:28:05.432Z,96335.10
2019-01-31T09:31:06.109Z,96334.28
2019-01-31T09:34:09.947Z,96330.69
2019-01-31T09:37:18.508Z,96338.00
2019-01-31T09:40:33.690Z,96333.69
2019-01-31T09:43:47.713Z,96336.88
2019-01-31T09:46:40.328Z,96336.56
2019-01-31T09:49:57.525Z,96339.66
2019-01-31T09:53:13.228Z,96334.03
2019-01-31T09:56:27.551Z,96345.53
2019-01-31T09:59:30.568Z,96341.86
2019-01-31T10:02:48.113Z,96340.81
2019-01-31T10:05:53.320Z,96336.58
2019-01-31T10:09:01.295Z,96336.76
2019-01-31T10:12:04.105Z,96330.75
2019-01-31T10:14:52.857Z,96327.45
2019-01-31T10:18:01.768Z,96327.52
2019-01-31T10:21:09.837Z,96327.22
2019-01-31T10:24:33.264Z,96329.02
2019-01-31T10:27:43.893Z,96324.75
2019-01-31T10:30:57.217Z,96320.51
2019-01-31T10:34:09.144Z,96318.77
2019-01-31T10:37:14.482Z,96315.87
2019-01-31T10:40:18.908Z,96315.25
2019-01-31T10:43:24.201Z,96310.23
2019-01-31T10:46:12.216Z,96315.08
2019-01-31T10:49:08.665Z,96305.09
2019-01-31T10:52:13.625Z,96302.55
2019-01-31T10:55:01.374Z,96301.38
2019-01-31T10:58:24.613Z,96296.05
2019-01-31T11:01:35.410Z,96287.08
2019-01-31T11:04:32.001Z,96285.72
2019-01-31T11:07:29.575Z,96280.17
2019-01-31T11:10:35.787Z,96279.66
2019-01-31T11:13:40.110Z,96281.05
2019-01-31T11:16:55.009Z,96272.35
2019-01-31T11:19:56.915Z,96261.02
2019-01-31T11:23:09.579Z,96266.05
2019-01-31T11:26:19.789Z,96252.83
2019-01-31T11:29:29.432Z,96252.83
2019-01-31T11:32:49.233Z,96250.19
2019-01-31T11:35:44.774Z,96246.32
2019-01-31T11:38:45.870Z,96241.53
2019-01-31T11:41:36.005Z,96241.17
2019-01-31T11:44:20.790Z,96243.53
2019-01-31T11:47:03.318Z,96235.02
2019-01-31T11:50:03.999Z,96235.02
2019-01-31T11:53:01.526Z,96233.31
2019-01-31T11:56:22.169Z,96228.44
2019-01-31T11:58:59.204Z,96225.81
2019-01-31T12:01:29.802Z,96222.94
2019-01-31T12:04:12.255Z,96220.57
2019-01-31T12:06:42.682Z,96214.98
2019-01-31T12:09:25.886Z,96213.78
2019-01-31T12:11:56.703Z,96206.52
2019-01-31T12:14:26.950Z,96198.56
2019-01-31T12:16:57.235Z,96197.58
2019-01-31T12:19:27.489Z,96196.13
2019-01-31T12:21:57.831Z,96186.53
2019-01-31T12:24:27.981Z,96191.60
2019-01-31T12:26:58.213Z,96185.59
2019-01-31T12:29:28.494Z,96182.59
2019-01-31T12:31:58.839Z,96179.87
2019-01-31T12:34:29.529Z,96171.86
2019-01-31T12:36:59.759Z,96173.55
2019-01-31T12:39:30.178Z,96170.30
2019-01-31T12:42:00.765Z,96168.66
2019-01-31T12:44:31.374Z,96167.34
2019-01-31T12:47:01.555Z,96166.36
2019-01-31T12:49:31.898Z,96161.26
2019-01-31T12:52:04.165Z,96154.95
2019-01-31T12:54:34.071Z,96156.25
2019-01-31T12:57:04.435Z,96148.52
2019-01-31T12:59:34.595Z,96146.45
2019-01-31T13:02:04.970Z,96142.77
2019-01-31T13:04:35.502Z,96140.02
2019-01-31T13:07:05.929Z,96139.83
2019-01-31T13:09:36.294Z,96143.16
2019-01-31T13:12:07.753Z,96146.55
2019-01-31T13:14:38.429Z,96140.54
2019-01-31T13:17:08.769Z,96145.57
2019-01-31T13:19:39.199Z,96133.14
2019-01-31T13:22:09.783Z,96136.97
2019-01-31T13:24:40.425Z,96132.77
2019-01-31T13:27:10.660Z,96128.61
2019-01-31T13:29:40.833Z,96121.22
2019-01-31T13:32:10.780Z,96120.48
2019-01-31T13:34:41.034Z,96119.29
2019-01-31T13:37:14.186Z,96128.16
2019-01-31T13:39:45.733Z,96121.98
2019-01-31T13:42:16.378Z,96113.72
2019-01-31T13:44:46.785Z,96116.08
2019-01-31T13:47:16.907Z,96116.67
2019-01-31T13:49:47.383Z,96116.11
2019-01-31T13:52:18.236Z,96117.91
2019-01-31T13:54:48.870Z,96121.95
2019-01-31T13:57:19.170Z,96123.29
2019-01-31T13:59:49.930Z,96124.14
2019-01-31T14:02:20.470Z,96122.36
2019-01-31T14:04:51.433Z,96128.63
2019-01-31T14:07:21.922Z,96133.74
2019-01-31T14:09:52.689Z,96130.96
2019-01-31T14:12:22.995Z,96122.43
2019-01-31T14:14:53.336Z,96133.07
2019-01-31T14:17:24.022Z,96126.16
2019-01-31T14:19:54.453Z,96121.11
2019-01-31T14:22:25.344Z,96111.20
2019-01-31T14:24:55.951Z,96125.08
2019-01-31T14:27:26.787Z,96120.20
2019-01-31T14:29:57.192Z,96120.58
2019-01-31T14:32:28.085Z,96127.59
2019-01-31T14:34:58.633Z,96121.44
2019-01-31T14:37:28.960Z,96122.50
2019-01-31T14:39:59.331Z,96117.28
2019-01-31T14:42:29.985Z,96119.67
2019-01-31T14:45:00.399Z,96111.02
2019-01-31T14:47:30.691Z,96111.45
2019-01-31T14:50:01.478Z,96107.27
2019-01-31T14:52:32.840Z,96112.52
2019-01-31T14:55:03.649Z,96112.95
2019-01-31T14:57:34.349Z,96113.76
2019-01-31T15:00:06.971Z,96108.87
2019-01-31T15:02:38.901Z,96110.20
2019-01-31T15:05:11.010Z,96108.23
2019-01-31T15:07:41.553Z,96116.40
2019-01-31T15:10:15.016Z,96111.22
2019-01-31T15:12:45.792Z,96104.48
2019-01-31T15:15:16.543Z,96106.05
2019-01-31T15:17:47.157Z,96106.67
2019-01-31T15:20:20.545Z,96106.59
2019-01-31T15:22:50.900Z,96095.81
2019-01-31T15:25:22.186Z,96094.81
2019-01-31T15:27:52.690Z,96099.52
2019-01-31T15:30:28.207Z,96103.14
2019-01-31T15:32:59.591Z,96099.04
2019-01-31T15:35:29.807Z,96101.86
2019-01-31T15:38:00.061Z,96109.02
2019-01-31T15:40:33.924Z,96098.01
2019-01-31T15:43:04.697Z,96101.08
2019-01-31T15:45:35.347Z,96100.80
2019-01-31T15:48:06.095Z,96103.25
2019-01-31T15:50:36.821Z,96097.46
2019-01-31T15:53:07.702Z,96098.58
2019-01-31T15:55:38.187Z,96101.61
2019-01-31T15:58:10.292Z,96103.18
2019-01-31T16:00:52.241Z,96098.13
2019-01-31T16:03:24.131Z,96093.48
2019-01-31T16:05:54.449Z,96091.23
2019-01-31T16:08:25.469Z,96083.27
2019-01-31T16:10:55.784Z,96089.02
2019-01-31T16:13:27.353Z,96091.46
2019-01-31T16:15:58.014Z,96089.69
2019-01-31T16:18:28.449Z,96084.67
2019-01-31T16:20:58.835Z,96086.95
2019-01-31T16:23:29.405Z,96081.26
2019-01-31T16:25:59.965Z,96073.61
2019-01-31T16:28:30.234Z,96068.85
2019-01-31T16:31:00.656Z,96071.88
2019-01-31T16:33:31.256Z,96075.11
2019-01-31T16:36:01.676Z,96072.08
2019-01-31T16:38:31.981Z,96071.54
2019-01-31T16:41:02.570Z,96062.73
2019-01-31T16:43:33.846Z,96048.80
2019-01-31T16:46:04.658Z,96042.59
2019-01-31T16:48:35.630Z,96039.87
2019-01-31T16:51:06.090Z,96039.03
2019-01-31T16:53:36.381Z,96041.29
2019-01-31T16:56:06.914Z,96044.86
2019-01-31T16:58:37.407Z,96041.70
2019-01-31T17:01:07.842Z,96043.11
2019-01-31T17:03:38.103Z,96039.30
2019-01-31T17:06:08.695Z,96032.38
2019-01-31T17:08:38.996Z,96015.07
2019-01-31T17:11:09.475Z,96020.03
2019-01-31T17:13:40.125Z,96026.39
2019-01-31T17:16:10.560Z,96033.45
2019-01-31T17:18:40.917Z,96038.67
2019-01-31T17:21:11.252Z,96021.53
2019-01-31T17:23:41.553Z,96026.69
2019-01-31T17:26:12.013Z,96032.23
2019-01-31T17:28:42.622Z,96041.44
2019-01-31T17:31:13.494Z,96035.97
2019-01-31T17:33:44.019Z,96027.05
2019-01-31T17:36:14.540Z,96026.66
2019-01-31T17:38:45.027Z,96036.89
2019-01-31T17:41:15.693Z,96032.45
2019-01-31T17:43:48.230Z,96022.47
2019-01-31T17:46:18.845Z,96015.84
2019-01-31T17:48:49.158Z,96017.15
2019-01-31T17:51:19.996Z,96015.27
2019-01-31T17:53:50.373Z,96018.16
2019-01-31T17:56:20.584Z,96020.31
2019-01-31T17:58:51.230Z,96018.72
2019-01-31T18:01:21.968Z,96019.14
2019-01-31T18:03:52.201Z,96011.99
2019-01-31T18:06:22.439Z,96004.17
2019-01-31T18:08:53.007Z,96010.34
2019-01-31T18:11:23.584Z,96011.16
2019-01-31T18:13:54.018Z,96013.00
2019-01-31T18:16:24.435Z,95996.53
2019-01-31T18:18:54.684Z,95999.21
2019-01-31T18:21:24.891Z,95993.58
2019-01-31T18:23:55.528Z,95998.59
2019-01-31T18:26:25.976Z,96005.98
2019-01-31T18:28:56.288Z,95995.03
2019-01-31T18:31:26.611Z,95985.44
2019-01-31T18:33:57.151Z,95988.25
2019-01-31T18:36:27.745Z,95977.27
2019-01-31T18:38:58.229Z,95963.67
2019-01-31T18:41:28.837Z,95942.35
2019-01-31T18:43:59.510Z,95940.28
2019-01-31T18:46:30.154Z,95945.39
2019-01-31T18:49:00.803Z,95938.42
2019-01-31T18:51:31.034Z,95934.11
2019-01-31T18:54:01.434Z,95929.83
2019-01-31T18:56:32.329Z,95934.29
2019-01-31T18:59:04.059Z,95927.67
2019-01-31T19:01:34.729Z,95923.86
2019-01-31T19:04:05.743Z,95916.55
2019-01-31T19:06:36.107Z,95908.55
2019-01-31T19:09:06.917Z,95909.27
2019-01-31T19:11:37.302Z,95906.81
2019-01-31T19:14:07.968Z,95897.51
2019-01-31T19:16:38.930Z,95901.80
2019-01-31T19:19:09.494Z,95894.66
2019-01-31T19:21:40.397Z,95894.05
2019-01-31T19:24:11.082Z,95881.66
2019-01-31T19:26:41.300Z,95878.73
2019-01-31T19:29:12.332Z,95872.58
2019-01-31T19:31:43.468Z,95873.88
2019-01-31T19:34:14.283Z,95866.43
2019-01-31T19:36:45.909Z,95865.20
2019-01-31T19:39:18.970Z,95873.11
2019-01-31T19:41:49.413Z,95873.11
2019-01-31T19:44:20.772Z,95862.67
2019-01-31T19:46:51.198Z,95854.43
2019-01-31T19:49:24.907Z,95853.63
2019-01-31T19:51:55.406Z,95852.53
2019-01-31T19:54:27.305Z,95847.18
2019-01-31T19:56:57.676Z,95843.19
2019-01-31T19:59:28.387Z,95835.48
2019-01-31T20:01:58.860Z,95834.14
2019-01-31T20:04:29.233Z,95831.22
2019-01-31T20:06:59.831Z,95825.56
2019-01-31T20:09:30.607Z,95821.80
2019-01-31T20:12:01.306Z,95822.83
2019-01-31T20:14:31.738Z,95828.45
2019-01-31T20:17:02.807Z,95825.03
2019-01-31T20:19:36.767Z,95822.67
2019-01-31T20:22:07.235Z,95820.52
2019-01-31T20:24:37.553Z,95827.66
2019-01-31T20:27:08.203Z,95828.15
2019-01-31T20:29:38.846Z,95831.91
2019-01-31T20:32:09.169Z,95833.51
2019-01-31T20:34:39.575Z,95830.58
2019-01-31T20:37:10.053Z,95831.64
2019-01-31T20:39:40.678Z,95836.12
2019-01-31T20:42:12.968Z,95833.73
2019-01-31T20:44:43.861Z,95828.95
2019-01-31T20:47:15.798Z,95831.27
2019-01-31T20:49:46.537Z,95837.04
2019-01-31T20:52:16.857Z,95836.05
2019-01-31T20:54:47.590Z,95840.77
2019-01-31T20:57:17.959Z,95833.61
2019-01-31T20:59:48.267Z,95838.25
2019-01-31T21:02:19.038Z,95830.47
2019-01-31T21:04:49.463Z,95836.84
2019-01-31T21:07:19.744Z,95836.73
2019-01-31T21:09:50.223Z,95833.65
2019-01-31T21:12:20.922Z,95820.84
2019-01-31T21:14:51.339Z,95806.98
2019-01-31T21:17:21.796Z,95797.25
2019-01-31T21:19:52.468Z,95792.43
2019-01-31T21:22:22.907Z,95791.36
2019-01-31T21:24:53.382Z,95786.16
2019-01-31T21:27:23.962Z,95784.00
2019-01-31T21:29:54.292Z,95781.69
2019-01-31T21:32:24.776Z,95784.87
2019-01-31T21:34:55.348Z,95777.27
2019-01-31T21:37:25.965Z,95771.68
2019-01-31T21:39:56.156Z,95770.43
2019-01-31T21:42:26.602Z,95766.09
2019-01-31T21:44:57.383Z,95766.73
2019-01-31T21:47:27.943Z,95762.43
2019-01-31T21:49:58.414Z,95763.20
2019-01-31T21:52:29.016Z,95764.46
2019-01-31T21:54:59.360Z,95757.69
2019-01-31T21:57:29.711Z,95761.27
2019-01-31T22:00:00.397Z,95758.48
2019-01-31T22:02:31.841Z,95748.29
2019-01-31T22:05:02.217Z,95746.08
2019-01-31T22:07:32.483Z,95741.83
2019-01-31T22:10:02.793Z,95747.72
2019-01-31T22:12:33.464Z,95742.89
2019-01-31T22:15:03.977Z,95749.23
2019-01-31T22:17:34.682Z,95737.17
2019-01-31T22:20:05.841Z,95729.64
2019-01-31T22:22:36.568Z,95717.17
2019-01-31T22:25:09.149Z,95719.02
2019-01-31T22:27:40.552Z,95716.80
2019-01-31T22:30:14.610Z,95711.63
2019-01-31T22:32:44.868Z,95716.36
2019-01-31T22:35:16.263Z,95715.22
2019-01-31T22:37:46.873Z,95708.56
2019-01-31T22:40:17.242Z,95704.83
2019-01-31T22:42:47.602Z,95712.65
2019-01-31T22:45:19.702Z,95710.73
2019-01-31T22:47:50.099Z,95709.76
2019-01-31T22:50:21.892Z,95700.23
2019-01-31T22:52:52.250Z,95694.56
2019-01-31T22:55:24.050Z,95686.48
2019-01-31T22:57:54.483Z,95671.45
2019-01-31T23:01:08.967Z,95653.75
2019-01-31T23:03:39.633Z,95652.17
2019-01-31T23:06:12.867Z,95643.16
2019-01-31T23:08:43.085Z,95635.59
2019-01-31T23:11:13.735Z,95620.10
2019-01-31T23:13:43.971Z,95614.86
2019-01-31T23:16:14.448Z,95615.34
2019-01-31T23:18:44.804Z,95615.34
2019-01-31T23:21:15.158Z,95630.70
2019-01-31T23:23:45.378Z,95631.27
2019-01-31T23:26:15.737Z,95630.03
2019-01-31T23:28:46.023Z,95617.98
2019-01-31T23:31:16.216Z,95617.70
2019-01-31T23:33:46.430Z,95623.63
2019-01-31T23:36:16.734Z,95626.78
2019-01-31T23:38:47.254Z,95634.48
2019-01-31T23:41:17.641Z,95626.45
2019-01-31T23:43:47.927Z,95630.62
2019-01-31T23:46:18.101Z,95633.46
2019-01-31T23:48:50.628Z,95628.98
2019-01-31T23:51:20.403Z,95628.09
2019-01-31T23:53:50.608Z,95626.73
2019-01-31T23:56:20.922Z,95617.92
2019-01-31T23:58:51.179Z,95613.73
